Loachapoka, Alabama
Current Conditions -  °F | °C
As of 1:55 PM on Wednesday 28 Jan 2015 (Local Time) from KAUO Reporting Station
Clear Clear  
Wind Chill: 54°   Ceiling: Unl
Heat Index: 54°   Visibility: 10mi
Dew Point: 23°   Wind: 6mph
Humidity: 30%   Direction: 30°NNE
Pressure: 30.25"   Gusts: NA
Location:  32.6°N, 85.59°W
Report Text: KAUO 281955Z AUTO 03005KT 10SM CLR 12/M05 A3025 RMK AO1
Loading
Personal Weather Stations






























Interactive Weather Map New forecast layout! Learn more

10-Day Weather Forecast

Advertisements
Track Severe Weather on mobile